Kochi, Japan

7:50 AM JST on September 18, 2014 (GMT +0900)
Kochi | Change Station
CLOSE
Current Station
Airport
Location: Kochi,
Elevation: 36 ft
Nearby Weather Stations

Elev 36 ft 33.55 °N, 133.67 °E | Updated 50 minutes ago

Mostly Cloudy
Mostly Cloudy
72 °F
Feels Like 72 °F
N
13
Wind Variable Wind from North

Today
High -- | Low -- °F
--% Chance of Precip.
Yesterday
High -- | Low -- °F
Precip. -- in
5:50 AM 6:08 PM
Waning Crescent, 32% visible
Pressure 29.92 in
Visibility 6.2 miles
Clouds Few 3000 ft
Scattered Clouds 6000 ft
Mostly Cloudy 11000 ft
Dew Point 59 °F
Humidity 64%
Rainfall 0.00 in
Snow Depth Not available.
UV 0 out of 12
Pollen Not available.
Air Quality Not available.
Flu Activity Not available.
METAR RJOK 172200Z 36011KT 9999 FEW030 SCT060 BKN110 22/15 Q1013

More Conditions Fewer Conditions

Pressure 29.92 in
Visibility 6.2 miles
Clouds Few 3000 ft
Scattered Clouds 6000 ft
Mostly Cloudy 11000 ft
Dew Point 59 °F
Humidity 64%
Rainfall 0.00 in
Snow Depth Not available.
UV 0 out of 12
Pollen Not available.
Air Quality Not available.
Flu Activity Not available.
METAR RJOK 172200Z 36011KT 9999 FEW030 SCT060 BKN110 22/15 Q1013

More Conditions Fewer Conditions

10-Day Weather Forecast

Almanac

Astronomy

Sep. 18, 2014 Rise Set
Actual Time 5:50 AM JST 6:08 PM JST
Civil Twilight 5:26 AM JST 6:33 PM JST
Nautical Twilight 4:56 AM JST 7:02 PM JST
Astronomical Twilight 4:27 AM JST 7:32 PM JST
Moon 12:22 AM JST (9/18) 2:23 PM JST (9/18)
Length of Visible Light 13h 07m
Length of Day
12h 18m
Tomorrow will be 2m 3s shorter.
Waning Crescent, 32% of the Moon is Illuminated
Sep 17
Waning Crescent
Sep 24
New
Oct 1
First Quarter
Oct 8
Full
Oct 15
Last Quarter

Yesterday's Extremes

Country Highs Country Lows

Community

WunderPhotos

Upload Photos

1,754,185 photos uploaded!

Nearby

Snow Depth

Not available.

Earthquake Activity

City Distance Mag. Time & Date
No recent earthquake activity has been reported nearby.
Minimum magnitude displayed is 2.5.

Coastal Water Temperatures

Place Temperature
No Stations Reporting

Nearby Weather Stations